sensor_id;sensor_type;location;lat;lon;timestamp;temperature;humidity
59128;DHT22;44912;52.754;5.994;2022-07-23T00:00:17;14.30;99.90
59128;DHT22;44912;52.754;5.994;2022-07-23T00:02:43;14.30;99.90
59128;DHT22;44912;52.754;5.994;2022-07-23T00:05:09;14.20;99.90
59128;DHT22;44912;52.754;5.994;2022-07-23T00:07:35;14.20;99.90
59128;DHT22;44912;52.754;5.994;2022-07-23T00:10:00;14.10;99.90
59128;DHT22;44912;52.754;5.994;2022-07-23T00:12:26;14.10;99.90
59128;DHT22;44912;52.754;5.994;2022-07-23T00:14:51;14.00;99.90
59128;DHT22;44912;52.754;5.994;2022-07-23T00:17:17;14.00;99.90
59128;DHT22;44912;52.754;5.994;2022-07-23T00:19:42;14.00;99.90
59128;DHT22;44912;52.754;5.994;2022-07-23T00:22:08;13.90;99.90
59128;DHT22;44912;52.754;5.994;2022-07-23T00:24:33;13.90;99.90
59128;DHT22;44912;52.754;5.994;2022-07-23T00:26:59;13.90;99.90
59128;DHT22;44912;52.754;5.994;2022-07-23T00:29:25;14.00;99.90
59128;DHT22;44912;52.754;5.994;2022-07-23T00:31:50;13.90;99.90
59128;DHT22;44912;52.754;5.994;2022-07-23T00:34:16;13.80;99.90
59128;DHT22;44912;52.754;5.994;2022-07-23T00:36:41;13.80;99.90
59128;DHT22;44912;52.754;5.994;2022-07-23T00:39:07;13.80;99.90
59128;DHT22;44912;52.754;5.994;2022-07-23T00:41:32;13.70;99.90
59128;DHT22;44912;52.754;5.994;2022-07-23T00:44:20;13.70;99.90
59128;DHT22;44912;52.754;5.994;2022-07-23T00:46:50;13.60;99.90
59128;DHT22;44912;52.754;5.994;2022-07-23T00:49:22;13.70;99.90
59128;DHT22;44912;52.754;5.994;2022-07-23T00:51:49;13.70;99.90
59128;DHT22;44912;52.754;5.994;2022-07-23T00:54:18;13.80;99.90
59128;DHT22;44912;52.754;5.994;2022-07-23T00:56:47;13.80;99.90
59128;DHT22;44912;52.754;5.994;2022-07-23T00:59:13;13.90;99.90
59128;DHT22;44912;52.754;5.994;2022-07-23T01:01:39;13.90;99.90
59128;DHT22;44912;52.754;5.994;2022-07-23T01:04:05;14.00;99.90
59128;DHT22;44912;52.754;5.994;2022-07-23T01:06:36;14.00;99.90
59128;DHT22;44912;52.754;5.994;2022-07-23T01:09:03;14.00;99.90
59128;DHT22;44912;52.754;5.994;2022-07-23T01:11:29;14.00;99.90
59128;DHT22;44912;52.754;5.994;2022-07-23T01:13:56;14.00;99.90
59128;DHT22;44912;52.754;5.994;2022-07-23T01:16:21;13.90;99.90
59128;DHT22;44912;52.754;5.994;2022-07-23T01:18:47;13.90;99.90
59128;DHT22;44912;52.754;5.994;2022-07-23T01:21:14;13.90;99.90
59128;DHT22;44912;52.754;5.994;2022-07-23T01:23:43;13.80;99.90
59128;DHT22;44912;52.754;5.994;2022-07-23T01:26:08;13.80;99.90
59128;DHT22;44912;52.754;5.994;2022-07-23T01:28:34;13.70;99.90
59128;DHT22;44912;52.754;5.994;2022-07-23T01:31:00;13.80;99.90
59128;DHT22;44912;52.754;5.994;2022-07-23T01:33:25;13.70;99.90
59128;DHT22;44912;52.754;5.994;2022-07-23T01:35:51;13.70;99.90
59128;DHT22;44912;52.754;5.994;2022-07-23T01:38:16;13.60;99.90
59128;DHT22;44912;52.754;5.994;2022-07-23T01:40:42;13.60;99.90
59128;DHT22;44912;52.754;5.994;2022-07-23T01:43:10;13.60;99.90
59128;DHT22;44912;52.754;5.994;2022-07-23T01:45:35;13.60;99.90
59128;DHT22;44912;52.754;5.994;2022-07-23T01:48:01;13.60;99.90
59128;DHT22;44912;52.754;5.994;2022-07-23T01:50:26;13.60;99.90
59128;DHT22;44912;52.754;5.994;2022-07-23T01:52:52;13.60;99.90
59128;DHT22;44912;52.754;5.994;2022-07-23T01:55:20;13.60;99.90
59128;DHT22;44912;52.754;5.994;2022-07-23T01:57:46;13.50;99.90
59128;DHT22;44912;52.754;5.994;2022-07-23T02:00:15;13.50;99.90
59128;DHT22;44912;52.754;5.994;2022-07-23T02:02:40;13.50;99.90
59128;DHT22;44912;52.754;5.994;2022-07-23T02:05:07;13.50;99.90
59128;DHT22;44912;52.754;5.994;2022-07-23T02:07:32;13.50;99.90
59128;DHT22;44912;52.754;5.994;2022-07-23T02:09:58;13.50;99.90
59128;DHT22;44912;52.754;5.994;2022-07-23T02:12:23;13.50;99.90
59128;DHT22;44912;52.754;5.994;2022-07-23T02:14:49;13.50;99.90
59128;DHT22;44912;52.754;5.994;2022-07-23T02:17:14;13.40;99.90
59128;DHT22;44912;52.754;5.994;2022-07-23T02:19:40;13.40;99.90
59128;DHT22;44912;52.754;5.994;2022-07-23T02:22:06;13.40;99.90
59128;DHT22;44912;52.754;5.994;2022-07-23T02:24:31;13.40;99.90
59128;DHT22;44912;52.754;5.994;2022-07-23T02:26:57;13.30;99.90
59128;DHT22;44912;52.754;5.994;2022-07-23T02:29:22;13.30;99.90
59128;DHT22;44912;52.754;5.994;2022-07-23T02:31:48;13.20;99.90
59128;DHT22;44912;52.754;5.994;2022-07-23T02:34:13;13.10;99.90
59128;DHT22;44912;52.754;5.994;2022-07-23T02:36:39;13.10;99.90
59128;DHT22;44912;52.754;5.994;2022-07-23T02:39:05;13.00;99.90
59128;DHT22;44912;52.754;5.994;2022-07-23T02:41:30;13.00;99.90
59128;DHT22;44912;52.754;5.994;2022-07-23T02:43:59;12.90;99.90
59128;DHT22;44912;52.754;5.994;2022-07-23T02:46:24;12.90;99.90
59128;DHT22;44912;52.754;5.994;2022-07-23T02:48:50;12.80;99.90
59128;DHT22;44912;52.754;5.994;2022-07-23T02:51:15;12.80;99.90
59128;DHT22;44912;52.754;5.994;2022-07-23T02:53:41;12.60;99.90
59128;DHT22;44912;52.754;5.994;2022-07-23T02:56:07;12.60;99.90
59128;DHT22;44912;52.754;5.994;2022-07-23T02:58:33;12.60;99.90
59128;DHT22;44912;52.754;5.994;2022-07-23T03:00:58;12.60;99.90
59128;DHT22;44912;52.754;5.994;2022-07-23T03:03:24;12.60;99.90
59128;DHT22;44912;52.754;5.994;2022-07-23T03:05:49;12.60;99.90
59128;DHT22;44912;52.754;5.994;2022-07-23T03:08:15;12.70;99.90
59128;DHT22;44912;52.754;5.994;2022-07-23T03:10:40;12.70;99.90
59128;DHT22;44912;52.754;5.994;2022-07-23T03:13:09;12.70;99.90
59128;DHT22;44912;52.754;5.994;2022-07-23T03:15:34;12.80;99.90
59128;DHT22;44912;52.754;5.994;2022-07-23T03:18:00;12.80;99.90
59128;DHT22;44912;52.754;5.994;2022-07-23T03:20:25;12.80;99.90
59128;DHT22;44912;52.754;5.994;2022-07-23T03:22:51;12.80;99.90
59128;DHT22;44912;52.754;5.994;2022-07-23T03:25:19;12.80;99.90
59128;DHT22;44912;52.754;5.994;2022-07-23T03:27:44;12.80;99.90
59128;DHT22;44912;52.754;5.994;2022-07-23T03:30:11;12.70;99.90
59128;DHT22;44912;52.754;5.994;2022-07-23T03:32:37;12.60;99.90
59128;DHT22;44912;52.754;5.994;2022-07-23T03:35:02;12.50;99.90
59128;DHT22;44912;52.754;5.994;2022-07-23T03:37:28;12.40;99.90
59128;DHT22;44912;52.754;5.994;2022-07-23T03:39:54;12.40;99.90
59128;DHT22;44912;52.754;5.994;2022-07-23T03:42:19;12.40;99.90
59128;DHT22;44912;52.754;5.994;2022-07-23T03:44:45;12.40;99.90
59128;DHT22;44912;52.754;5.994;2022-07-23T03:47:11;12.40;99.90
59128;DHT22;44912;52.754;5.994;2022-07-23T03:49:36;12.30;99.90
59128;DHT22;44912;52.754;5.994;2022-07-23T03:52:02;12.40;99.90
59128;DHT22;44912;52.754;5.994;2022-07-23T03:54:28;12.40;99.90
59128;DHT22;44912;52.754;5.994;2022-07-23T03:56:54;12.40;99.90
59128;DHT22;44912;52.754;5.994;2022-07-23T03:59:19;12.50;99.90
59128;DHT22;44912;52.754;5.994;2022-07-23T04:01:46;12.50;99.90
59128;DHT22;44912;52.754;5.994;2022-07-23T04:04:11;12.50;99.90
59128;DHT22;44912;52.754;5.994;2022-07-23T04:06:37;12.60;99.90
59128;DHT22;44912;52.754;5.994;2022-07-23T04:09:03;12.50;99.90
59128;DHT22;44912;52.754;5.994;2022-07-23T04:11:28;12.40;99.90
59128;DHT22;44912;52.754;5.994;2022-07-23T04:13:54;12.40;99.90
59128;DHT22;44912;52.754;5.994;2022-07-23T04:16:19;12.40;99.90
59128;DHT22;44912;52.754;5.994;2022-07-23T04:18:45;12.40;99.90
59128;DHT22;44912;52.754;5.994;2022-07-23T04:21:11;12.40;99.90
59128;DHT22;44912;52.754;5.994;2022-07-23T04:23:36;12.40;99.90
59128;DHT22;44912;52.754;5.994;2022-07-23T04:26:02;12.30;99.90
59128;DHT22;44912;52.754;5.994;2022-07-23T04:28:27;12.30;99.90
59128;DHT22;44912;52.754;5.994;2022-07-23T04:30:56;12.30;99.90
59128;DHT22;44912;52.754;5.994;2022-07-23T04:33:22;12.30;99.90
59128;DHT22;44912;52.754;5.994;2022-07-23T04:35:47;12.40;99.90
59128;DHT22;44912;52.754;5.994;2022-07-23T04:38:13;12.50;99.90
59128;DHT22;44912;52.754;5.994;2022-07-23T04:40:38;12.60;99.90
59128;DHT22;44912;52.754;5.994;2022-07-23T04:43:06;12.70;99.90
59128;DHT22;44912;52.754;5.994;2022-07-23T04:45:32;12.70;99.90
59128;DHT22;44912;52.754;5.994;2022-07-23T04:47:57;12.70;99.90
59128;DHT22;44912;52.754;5.994;2022-07-23T04:50:23;12.70;99.90
59128;DHT22;44912;52.754;5.994;2022-07-23T04:52:49;12.70;99.90
59128;DHT22;44912;52.754;5.994;2022-07-23T04:55:15;12.60;99.90
59128;DHT22;44912;52.754;5.994;2022-07-23T04:57:40;12.70;99.90
59128;DHT22;44912;52.754;5.994;2022-07-23T05:00:07;12.70;99.90
59128;DHT22;44912;52.754;5.994;2022-07-23T05:02:33;12.70;99.90
59128;DHT22;44912;52.754;5.994;2022-07-23T05:04:58;12.80;99.90
59128;DHT22;44912;52.754;5.994;2022-07-23T05:07:24;12.80;99.90
59128;DHT22;44912;52.754;5.994;2022-07-23T05:09:49;12.90;99.90
59128;DHT22;44912;52.754;5.994;2022-07-23T05:12:18;13.00;99.90
59128;DHT22;44912;52.754;5.994;2022-07-23T05:14:43;13.10;99.90
59128;DHT22;44912;52.754;5.994;2022-07-23T05:17:09;13.10;99.90
59128;DHT22;44912;52.754;5.994;2022-07-23T05:19:35;13.20;99.90
59128;DHT22;44912;52.754;5.994;2022-07-23T05:22:00;13.30;99.90
59128;DHT22;44912;52.754;5.994;2022-07-23T05:24:26;13.40;99.90
59128;DHT22;44912;52.754;5.994;2022-07-23T05:26:52;13.40;99.90
59128;DHT22;44912;52.754;5.994;2022-07-23T05:29:17;13.40;99.90
59128;DHT22;44912;52.754;5.994;2022-07-23T05:31:43;13.50;99.90
59128;DHT22;44912;52.754;5.994;2022-07-23T05:34:09;13.60;99.90
59128;DHT22;44912;52.754;5.994;2022-07-23T05:36:35;13.60;99.90
59128;DHT22;44912;52.754;5.994;2022-07-23T05:39:00;13.70;99.90
59128;DHT22;44912;52.754;5.994;2022-07-23T05:41:26;13.90;99.90
59128;DHT22;44912;52.754;5.994;2022-07-23T05:43:51;13.90;99.90
59128;DHT22;44912;52.754;5.994;2022-07-23T05:46:17;14.00;99.90
59128;DHT22;44912;52.754;5.994;2022-07-23T05:48:42;14.10;99.90
59128;DHT22;44912;52.754;5.994;2022-07-23T05:51:08;14.20;99.90
59128;DHT22;44912;52.754;5.994;2022-07-23T05:53:35;14.30;99.90
59128;DHT22;44912;52.754;5.994;2022-07-23T05:56:01;14.40;99.90
59128;DHT22;44912;52.754;5.994;2022-07-23T05:58:26;14.50;99.90
59128;DHT22;44912;52.754;5.994;2022-07-23T06:00:52;14.60;99.90
59128;DHT22;44912;52.754;5.994;2022-07-23T06:03:18;14.70;99.90
59128;DHT22;44912;52.754;5.994;2022-07-23T06:05:43;14.80;99.90
59128;DHT22;44912;52.754;5.994;2022-07-23T06:08:09;14.90;99.90
59128;DHT22;44912;52.754;5.994;2022-07-23T06:10:37;14.90;99.90
59128;DHT22;44912;52.754;5.994;2022-07-23T06:13:02;15.00;99.90
59128;DHT22;44912;52.754;5.994;2022-07-23T06:15:28;15.10;99.90
59128;DHT22;44912;52.754;5.994;2022-07-23T06:17:54;15.20;99.90
59128;DHT22;44912;52.754;5.994;2022-07-23T06:20:19;15.30;99.90
59128;DHT22;44912;52.754;5.994;2022-07-23T06:22:45;15.40;99.90
59128;DHT22;44912;52.754;5.994;2022-07-23T06:25:11;15.40;99.90
59128;DHT22;44912;52.754;5.994;2022-07-23T06:27:36;15.60;99.90
59128;DHT22;44912;52.754;5.994;2022-07-23T06:30:04;15.70;99.90
59128;DHT22;44912;52.754;5.994;2022-07-23T06:32:31;15.80;99.90
59128;DHT22;44912;52.754;5.994;2022-07-23T06:34:56;15.90;99.90
59128;DHT22;44912;52.754;5.994;2022-07-23T06:37:22;16.10;99.90
59128;DHT22;44912;52.754;5.994;2022-07-23T06:39:47;16.20;99.90
59128;DHT22;44912;52.754;5.994;2022-07-23T06:42:13;16.10;99.90
59128;DHT22;44912;52.754;5.994;2022-07-23T06:44:39;16.10;99.90
59128;DHT22;44912;52.754;5.994;2022-07-23T06:47:04;16.10;99.90
59128;DHT22;44912;52.754;5.994;2022-07-23T06:49:30;16.20;99.90
59128;DHT22;44912;52.754;5.994;2022-07-23T06:51:58;16.30;99.90
59128;DHT22;44912;52.754;5.994;2022-07-23T06:54:23;16.40;99.90
59128;DHT22;44912;52.754;5.994;2022-07-23T06:56:49;16.60;99.90
59128;DHT22;44912;52.754;5.994;2022-07-23T06:59:15;16.60;99.90
59128;DHT22;44912;52.754;5.994;2022-07-23T07:01:43;16.60;99.90
59128;DHT22;44912;52.754;5.994;2022-07-23T07:04:08;16.70;99.90
59128;DHT22;44912;52.754;5.994;2022-07-23T07:06:34;16.80;99.90
59128;DHT22;44912;52.754;5.994;2022-07-23T07:08:59;16.90;99.90
59128;DHT22;44912;52.754;5.994;2022-07-23T07:11:25;16.80;99.90
59128;DHT22;44912;52.754;5.994;2022-07-23T07:13:51;16.80;99.90
59128;DHT22;44912;52.754;5.994;2022-07-23T07:16:17;16.80;99.90
59128;DHT22;44912;52.754;5.994;2022-07-23T07:18:43;16.80;99.90
59128;DHT22;44912;52.754;5.994;2022-07-23T07:21:08;16.80;99.90
59128;DHT22;44912;52.754;5.994;2022-07-23T07:23:34;16.90;99.90
59128;DHT22;44912;52.754;5.994;2022-07-23T07:26:00;16.90;99.90
59128;DHT22;44912;52.754;5.994;2022-07-23T07:28:25;17.00;99.90
59128;DHT22;44912;52.754;5.994;2022-07-23T07:30:51;17.10;99.90
59128;DHT22;44912;52.754;5.994;2022-07-23T07:33:16;17.10;99.90
59128;DHT22;44912;52.754;5.994;2022-07-23T07:35:42;17.20;99.90
59128;DHT22;44912;52.754;5.994;2022-07-23T07:38:08;17.10;99.90
59128;DHT22;44912;52.754;5.994;2022-07-23T07:40:33;17.10;99.90
59128;DHT22;44912;52.754;5.994;2022-07-23T07:42:59;17.20;99.90
59128;DHT22;44912;52.754;5.994;2022-07-23T07:45:25;17.30;99.90
59128;DHT22;44912;52.754;5.994;2022-07-23T07:47:51;17.50;99.90
59128;DHT22;44912;52.754;5.994;2022-07-23T07:50:18;17.60;99.90
59128;DHT22;44912;52.754;5.994;2022-07-23T07:52:44;17.60;99.90
59128;DHT22;44912;52.754;5.994;2022-07-23T07:55:10;17.70;99.90
59128;DHT22;44912;52.754;5.994;2022-07-23T07:57:36;17.70;99.90
59128;DHT22;44912;52.754;5.994;2022-07-23T08:00:03;17.80;99.90
59128;DHT22;44912;52.754;5.994;2022-07-23T08:02:52;17.80;99.90
59128;DHT22;44912;52.754;5.994;2022-07-23T08:05:20;17.80;99.90
59128;DHT22;44912;52.754;5.994;2022-07-23T08:07:46;17.60;99.90
59128;DHT22;44912;52.754;5.994;2022-07-23T08:10:12;17.60;99.90
59128;DHT22;44912;52.754;5.994;2022-07-23T08:12:49;17.70;99.90
59128;DHT22;44912;52.754;5.994;2022-07-23T08:15:17;17.70;99.90
59128;DHT22;44912;52.754;5.994;2022-07-23T08:17:44;17.80;99.90
59128;DHT22;44912;52.754;5.994;2022-07-23T08:20:11;18.00;99.90
59128;DHT22;44912;52.754;5.994;2022-07-23T08:22:51;18.30;99.90
59128;DHT22;44912;52.754;5.994;2022-07-23T08:25:23;18.50;99.90
59128;DHT22;44912;52.754;5.994;2022-07-23T08:27:49;18.30;99.90
59128;DHT22;44912;52.754;5.994;2022-07-23T08:30:18;18.10;99.90
59128;DHT22;44912;52.754;5.994;2022-07-23T08:32:59;18.20;99.90
59128;DHT22;44912;52.754;5.994;2022-07-23T08:35:31;18.40;99.90
59128;DHT22;44912;52.754;5.994;2022-07-23T08:37:59;18.60;99.90
59128;DHT22;44912;52.754;5.994;2022-07-23T08:40:30;18.80;99.90
59128;DHT22;44912;52.754;5.994;2022-07-23T08:42:56;18.80;99.90
59128;DHT22;44912;52.754;5.994;2022-07-23T08:45:23;18.90;99.90
59128;DHT22;44912;52.754;5.994;2022-07-23T08:47:51;18.90;99.90
59128;DHT22;44912;52.754;5.994;2022-07-23T08:50:17;18.90;99.90
59128;DHT22;44912;52.754;5.994;2022-07-23T08:52:45;18.90;99.90
59128;DHT22;44912;52.754;5.994;2022-07-23T08:55:12;18.90;99.90
59128;DHT22;44912;52.754;5.994;2022-07-23T08:57:37;18.80;99.90
59128;DHT22;44912;52.754;5.994;2022-07-23T09:00:05;18.80;99.90
59128;DHT22;44912;52.754;5.994;2022-07-23T09:02:38;18.90;99.90
59128;DHT22;44912;52.754;5.994;2022-07-23T09:05:04;19.10;99.90
59128;DHT22;44912;52.754;5.994;2022-07-23T09:07:31;19.20;99.90
59128;DHT22;44912;52.754;5.994;2022-07-23T09:10:08;19.50;99.90
59128;DHT22;44912;52.754;5.994;2022-07-23T09:12:35;19.60;99.90
59128;DHT22;44912;52.754;5.994;2022-07-23T09:15:08;19.60;99.90
59128;DHT22;44912;52.754;5.994;2022-07-23T09:17:41;19.40;99.90
59128;DHT22;44912;52.754;5.994;2022-07-23T09:20:12;19.40;99.90
59128;DHT22;44912;52.754;5.994;2022-07-23T09:22:44;19.50;99.90
59128;DHT22;44912;52.754;5.994;2022-07-23T09:25:19;19.60;99.90
59128;DHT22;44912;52.754;5.994;2022-07-23T09:27:55;19.70;99.90
59128;DHT22;44912;52.754;5.994;2022-07-23T09:30:23;19.90;99.90
59128;DHT22;44912;52.754;5.994;2022-07-23T09:33:10;20.20;99.90
59128;DHT22;44912;52.754;5.994;2022-07-23T09:35:50;20.20;99.90
59128;DHT22;44912;52.754;5.994;2022-07-23T09:38:19;20.10;99.90
59128;DHT22;44912;52.754;5.994;2022-07-23T09:40:45;20.20;99.90
59128;DHT22;44912;52.754;5.994;2022-07-23T09:43:12;20.60;99.90
59128;DHT22;44912;52.754;5.994;2022-07-23T09:45:38;20.90;99.90
59128;DHT22;44912;52.754;5.994;2022-07-23T09:48:15;20.90;99.90
59128;DHT22;44912;52.754;5.994;2022-07-23T09:50:44;21.00;99.90
59128;DHT22;44912;52.754;5.994;2022-07-23T09:53:24;21.00;99.90
59128;DHT22;44912;52.754;5.994;2022-07-23T09:55:51;21.00;99.90
59128;DHT22;44912;52.754;5.994;2022-07-23T09:58:19;20.80;99.90
59128;DHT22;44912;52.754;5.994;2022-07-23T10:00:48;20.80;99.90
59128;DHT22;44912;52.754;5.994;2022-07-23T10:03:15;20.70;99.90
59128;DHT22;44912;52.754;5.994;2022-07-23T10:05:43;20.60;99.90
59128;DHT22;44912;52.754;5.994;2022-07-23T10:08:11;20.70;99.90
59128;DHT22;44912;52.754;5.994;2022-07-23T10:10:46;20.70;99.90
59128;DHT22;44912;52.754;5.994;2022-07-23T10:13:14;20.80;99.90
59128;DHT22;44912;52.754;5.994;2022-07-23T10:15:45;20.90;99.90
59128;DHT22;44912;52.754;5.994;2022-07-23T10:18:11;20.70;99.90
59128;DHT22;44912;52.754;5.994;2022-07-23T10:20:38;20.50;99.90
59128;DHT22;44912;52.754;5.994;2022-07-23T10:36:47;20.90;99.90
59128;DHT22;44912;52.754;5.994;2022-07-23T10:39:24;21.00;99.90
59128;DHT22;44912;52.754;5.994;2022-07-23T10:41:51;20.90;99.90
59128;DHT22;44912;52.754;5.994;2022-07-23T10:44:18;20.70;99.90
59128;DHT22;44912;52.754;5.994;2022-07-23T10:49:33;20.80;99.90
59128;DHT22;44912;52.754;5.994;2022-07-23T10:54:54;21.30;99.90
59128;DHT22;44912;52.754;5.994;2022-07-23T10:57:21;21.50;99.90
59128;DHT22;44912;52.754;5.994;2022-07-23T11:02:29;21.40;99.90
59128;DHT22;44912;52.754;5.994;2022-07-23T11:05:06;21.50;99.90
59128;DHT22;44912;52.754;5.994;2022-07-23T11:07:32;21.40;99.90
59128;DHT22;44912;52.754;5.994;2022-07-23T11:09:58;21.20;99.90
59128;DHT22;44912;52.754;5.994;2022-07-23T11:15:06;21.20;99.90
59128;DHT22;44912;52.754;5.994;2022-07-23T11:17:37;21.40;99.90
59128;DHT22;44912;52.754;5.994;2022-07-23T11:22:49;21.60;99.90
59128;DHT22;44912;52.754;5.994;2022-07-23T11:28:08;21.70;99.90
59128;DHT22;44912;52.754;5.994;2022-07-23T11:30:39;21.60;99.90
59128;DHT22;44912;52.754;5.994;2022-07-23T11:35:38;21.80;99.90
59128;DHT22;44912;52.754;5.994;2022-07-23T11:38:07;21.80;99.90
59128;DHT22;44912;52.754;5.994;2022-07-23T11:40:34;21.80;99.90
59128;DHT22;44912;52.754;5.994;2022-07-23T11:43:04;21.80;99.90
59128;DHT22;44912;52.754;5.994;2022-07-23T11:45:35;21.90;99.90
59128;DHT22;44912;52.754;5.994;2022-07-23T11:48:01;21.90;99.90
59128;DHT22;44912;52.754;5.994;2022-07-23T11:50:27;22.10;99.90
59128;DHT22;44912;52.754;5.994;2022-07-23T11:52:53;22.20;99.90
59128;DHT22;44912;52.754;5.994;2022-07-23T11:55:20;22.20;99.90
59128;DHT22;44912;52.754;5.994;2022-07-23T11:57:45;22.10;99.90
59128;DHT22;44912;52.754;5.994;2022-07-23T12:02:41;22.10;99.90
59128;DHT22;44912;52.754;5.994;2022-07-23T12:05:07;22.20;99.90
59128;DHT22;44912;52.754;5.994;2022-07-23T12:07:40;22.30;99.90
59128;DHT22;44912;52.754;5.994;2022-07-23T12:10:19;22.50;99.90
59128;DHT22;44912;52.754;5.994;2022-07-23T12:15:13;22.60;99.90
59128;DHT22;44912;52.754;5.994;2022-07-23T12:17:49;22.60;99.90
59128;DHT22;44912;52.754;5.994;2022-07-23T12:20:18;22.60;99.90
59128;DHT22;44912;52.754;5.994;2022-07-23T12:22:50;22.50;99.90
59128;DHT22;44912;52.754;5.994;2022-07-23T12:25:19;22.30;99.90
59128;DHT22;44912;52.754;5.994;2022-07-23T12:27:45;22.10;99.90
59128;DHT22;44912;52.754;5.994;2022-07-23T12:30:27;22.10;99.90
59128;DHT22;44912;52.754;5.994;2022-07-23T12:32:56;22.30;99.90
59128;DHT22;44912;52.754;5.994;2022-07-23T12:35:22;22.50;99.90
59128;DHT22;44912;52.754;5.994;2022-07-23T12:37:50;22.50;99.90
59128;DHT22;44912;52.754;5.994;2022-07-23T12:40:26;22.50;99.90
59128;DHT22;44912;52.754;5.994;2022-07-23T12:42:56;22.60;99.90
59128;DHT22;44912;52.754;5.994;2022-07-23T12:45:22;22.60;99.90
59128;DHT22;44912;52.754;5.994;2022-07-23T12:48:05;22.70;99.90
59128;DHT22;44912;52.754;5.994;2022-07-23T12:50:47;22.70;99.90
59128;DHT22;44912;52.754;5.994;2022-07-23T12:53:17;22.80;99.90
59128;DHT22;44912;52.754;5.994;2022-07-23T12:55:44;22.80;99.90
59128;DHT22;44912;52.754;5.994;2022-07-23T12:58:15;22.90;99.90
59128;DHT22;44912;52.754;5.994;2022-07-23T13:00:56;23.00;99.90
59128;DHT22;44912;52.754;5.994;2022-07-23T13:03:29;23.30;99.90
59128;DHT22;44912;52.754;5.994;2022-07-23T13:05:58;23.40;99.90
59128;DHT22;44912;52.754;5.994;2022-07-23T13:08:27;23.50;99.90
59128;DHT22;44912;52.754;5.994;2022-07-23T13:10:53;23.40;99.90
59128;DHT22;44912;52.754;5.994;2022-07-23T13:13:23;23.30;99.90
59128;DHT22;44912;52.754;5.994;2022-07-23T13:15:50;23.30;99.90
59128;DHT22;44912;52.754;5.994;2022-07-23T13:18:16;23.20;99.90
59128;DHT22;44912;52.754;5.994;2022-07-23T13:20:43;23.30;99.90
59128;DHT22;44912;52.754;5.994;2022-07-23T13:23:09;23.40;99.90
59128;DHT22;44912;52.754;5.994;2022-07-23T13:25:35;23.30;99.90
59128;DHT22;44912;52.754;5.994;2022-07-23T13:28:01;23.20;99.90
59128;DHT22;44912;52.754;5.994;2022-07-23T13:30:26;23.20;99.90
59128;DHT22;44912;52.754;5.994;2022-07-23T13:32:55;23.10;99.90
59128;DHT22;44912;52.754;5.994;2022-07-23T13:35:20;23.00;99.90
59128;DHT22;44912;52.754;5.994;2022-07-23T13:37:46;23.20;99.90
59128;DHT22;44912;52.754;5.994;2022-07-23T13:40:12;23.50;99.90
59128;DHT22;44912;52.754;5.994;2022-07-23T13:42:37;23.80;99.90
59128;DHT22;44912;52.754;5.994;2022-07-23T13:45:04;24.00;99.90
59128;DHT22;44912;52.754;5.994;2022-07-23T13:47:30;23.90;99.90
59128;DHT22;44912;52.754;5.994;2022-07-23T13:49:56;23.70;99.90
59128;DHT22;44912;52.754;5.994;2022-07-23T13:52:22;23.60;99.90
59128;DHT22;44912;52.754;5.994;2022-07-23T13:54:47;23.60;99.90
59128;DHT22;44912;52.754;5.994;2022-07-23T13:57:13;23.60;99.90
59128;DHT22;44912;52.754;5.994;2022-07-23T13:59:38;23.70;99.90
59128;DHT22;44912;52.754;5.994;2022-07-23T14:02:04;23.70;99.90
59128;DHT22;44912;52.754;5.994;2022-07-23T14:04:30;23.60;99.90
59128;DHT22;44912;52.754;5.994;2022-07-23T14:06:56;23.40;99.90
59128;DHT22;44912;52.754;5.994;2022-07-23T14:09:22;23.40;99.90
59128;DHT22;44912;52.754;5.994;2022-07-23T14:11:48;23.60;99.90
59128;DHT22;44912;52.754;5.994;2022-07-23T14:14:16;23.70;99.90
59128;DHT22;44912;52.754;5.994;2022-07-23T14:16:42;23.80;99.90
59128;DHT22;44912;52.754;5.994;2022-07-23T14:19:08;23.70;99.90
59128;DHT22;44912;52.754;5.994;2022-07-23T14:21:34;23.70;99.90
59128;DHT22;44912;52.754;5.994;2022-07-23T14:23:59;23.70;99.90
59128;DHT22;44912;52.754;5.994;2022-07-23T14:26:25;23.70;99.90
59128;DHT22;44912;52.754;5.994;2022-07-23T14:28:51;23.70;99.90
59128;DHT22;44912;52.754;5.994;2022-07-23T14:31:16;23.50;99.90
59128;DHT22;44912;52.754;5.994;2022-07-23T14:33:42;23.50;99.90
59128;DHT22;44912;52.754;5.994;2022-07-23T14:36:08;23.60;99.90
59128;DHT22;44912;52.754;5.994;2022-07-23T14:38:33;23.60;99.90
59128;DHT22;44912;52.754;5.994;2022-07-23T14:40:59;23.50;99.90
59128;DHT22;44912;52.754;5.994;2022-07-23T14:43:24;23.30;99.90
59128;DHT22;44912;52.754;5.994;2022-07-23T14:45:50;23.30;99.90
59128;DHT22;44912;52.754;5.994;2022-07-23T14:48:16;23.50;99.90
59128;DHT22;44912;52.754;5.994;2022-07-23T14:50:41;23.60;99.90
59128;DHT22;44912;52.754;5.994;2022-07-23T14:53:07;23.60;99.90
59128;DHT22;44912;52.754;5.994;2022-07-23T14:55:34;23.60;99.90
59128;DHT22;44912;52.754;5.994;2022-07-23T14:58:00;23.50;99.90
59128;DHT22;44912;52.754;5.994;2022-07-23T15:00:26;23.70;99.90
59128;DHT22;44912;52.754;5.994;2022-07-23T15:02:52;23.70;99.90
59128;DHT22;44912;52.754;5.994;2022-07-23T15:05:21;23.60;99.90
59128;DHT22;44912;52.754;5.994;2022-07-23T15:07:47;23.60;99.90
59128;DHT22;44912;52.754;5.994;2022-07-23T15:10:13;23.60;99.90
59128;DHT22;44912;52.754;5.994;2022-07-23T15:12:38;23.70;99.90
59128;DHT22;44912;52.754;5.994;2022-07-23T15:15:04;23.90;99.90
59128;DHT22;44912;52.754;5.994;2022-07-23T15:17:30;24.20;99.90
59128;DHT22;44912;52.754;5.994;2022-07-23T15:19:57;24.40;99.90
59128;DHT22;44912;52.754;5.994;2022-07-23T15:22:23;24.50;99.90
59128;DHT22;44912;52.754;5.994;2022-07-23T15:24:48;24.50;99.90
59128;DHT22;44912;52.754;5.994;2022-07-23T15:27:14;24.40;99.90
59128;DHT22;44912;52.754;5.994;2022-07-23T15:29:39;24.40;99.90
59128;DHT22;44912;52.754;5.994;2022-07-23T15:32:05;24.50;99.90
59128;DHT22;44912;52.754;5.994;2022-07-23T15:34:31;24.60;99.90
59128;DHT22;44912;52.754;5.994;2022-07-23T15:36:59;24.60;99.90
59128;DHT22;44912;52.754;5.994;2022-07-23T15:39:25;24.50;99.90
59128;DHT22;44912;52.754;5.994;2022-07-23T15:41:51;24.60;99.90
59128;DHT22;44912;52.754;5.994;2022-07-23T15:44:18;24.90;99.90
59128;DHT22;44912;52.754;5.994;2022-07-23T15:46:44;25.20;99.90
59128;DHT22;44912;52.754;5.994;2022-07-23T15:49:13;25.30;99.90
59128;DHT22;44912;52.754;5.994;2022-07-23T15:51:39;25.50;99.90
59128;DHT22;44912;52.754;5.994;2022-07-23T15:54:04;25.60;99.90
59128;DHT22;44912;52.754;5.994;2022-07-23T15:56:30;25.80;99.90
59128;DHT22;44912;52.754;5.994;2022-07-23T15:58:55;26.00;99.90
59128;DHT22;44912;52.754;5.994;2022-07-23T16:01:21;26.30;99.90
59128;DHT22;44912;52.754;5.994;2022-07-23T16:03:47;26.40;99.90
59128;DHT22;44912;52.754;5.994;2022-07-23T16:06:12;26.50;99.90